createdAt,value
2018-06-25T00:01:19.640Z,99382.67
2018-06-25T00:03:48.996Z,99388.78
2018-06-25T00:06:18.328Z,99392.66
2018-06-25T00:08:47.680Z,99389.78
2018-06-25T00:11:17.050Z,99392.22
2018-06-25T00:13:46.416Z,99395.68
2018-06-25T00:16:15.784Z,99396.34
2018-06-25T00:18:45.141Z,99399.71
2018-06-25T00:21:14.666Z,99393.23
2018-06-25T00:23:44.024Z,99398.33
2018-06-25T00:26:13.388Z,99393.47
2018-06-25T00:28:42.896Z,99395.74
2018-06-25T00:31:12.260Z,99402.88
2018-06-25T00:33:41.603Z,99397.33
2018-06-25T00:36:10.956Z,99390.33
2018-06-25T00:38:40.330Z,99394.86
2018-06-25T00:41:09.672Z,99389.10
2018-06-25T00:43:39.064Z,99391.16
2018-06-25T00:46:08.502Z,99394.75
2018-06-25T00:48:37.860Z,99388.93
2018-06-25T00:51:07.616Z,99385.19
2018-06-25T00:53:37.037Z,99387.48
2018-06-25T00:56:06.421Z,99383.89
2018-06-25T00:58:47.262Z,99383.66
2018-06-25T01:01:16.614Z,99388.38
2018-06-25T01:03:46.159Z,99384.19
2018-06-25T01:06:15.586Z,99386.66
2018-06-25T01:08:44.903Z,99380.00
2018-06-25T01:11:14.275Z,99382.77
2018-06-25T01:13:43.644Z,99374.34
2018-06-25T01:16:13.011Z,99382.27
2018-06-25T01:18:42.412Z,99378.00
2018-06-25T01:21:11.763Z,99380.83
2018-06-25T01:23:41.283Z,99385.09
2018-06-25T01:26:10.748Z,99388.92
2018-06-25T01:28:40.088Z,99380.83
2018-06-25T01:31:09.450Z,99378.20
2018-06-25T01:33:38.851Z,99376.11
2018-06-25T01:36:08.216Z,99376.05
2018-06-25T01:38:37.616Z,99376.81
2018-06-25T01:41:06.987Z,99376.13
2018-06-25T01:43:36.347Z,99377.45
2018-06-25T01:46:05.800Z,99374.32
2018-06-25T01:48:35.312Z,99371.61
2018-06-25T01:51:04.669Z,99374.01
2018-06-25T01:53:34.107Z,99375.09
2018-06-25T01:56:03.578Z,99373.91
2018-06-25T01:58:32.987Z,99378.95
2018-06-25T02:01:02.726Z,99377.83
2018-06-25T02:03:32.088Z,99377.70
2018-06-25T02:06:01.519Z,99381.34
2018-06-25T02:08:30.937Z,99375.69
2018-06-25T02:11:00.277Z,99376.00
2018-06-25T02:13:29.643Z,99375.55
2018-06-25T02:15:59.308Z,99374.98
2018-06-25T02:18:31.901Z,99376.80
2018-06-25T02:21:01.301Z,99379.33
2018-06-25T02:23:30.639Z,99377.39
2018-06-25T02:25:59.984Z,99377.31
2018-06-25T02:28:29.399Z,99375.05
2018-06-25T02:30:58.735Z,99374.13
2018-06-25T02:33:28.119Z,99375.61
2018-06-25T02:35:57.526Z,99376.06
2018-06-25T02:38:27.691Z,99373.59
2018-06-25T02:40:57.246Z,99375.37
2018-06-25T02:43:26.596Z,99382.22
2018-06-25T02:45:56.143Z,99386.63
2018-06-25T02:48:25.461Z,99374.81
2018-06-25T02:50:56.200Z,99381.83
2018-06-25T02:53:25.564Z,99377.56
2018-06-25T02:55:55.268Z,99385.86
2018-06-25T02:58:24.655Z,99386.87
2018-06-25T03:00:54.012Z,99386.31
2018-06-25T03:03:23.371Z,99384.69
2018-06-25T03:05:52.719Z,99380.27
2018-06-25T03:08:22.057Z,99384.55
2018-06-25T03:10:51.832Z,99379.33
2018-06-25T03:13:21.181Z,99385.48
2018-06-25T03:15:50.523Z,99391.39
2018-06-25T03:18:19.900Z,99391.59
2018-06-25T03:20:49.247Z,99397.81
2018-06-25T03:23:18.582Z,99392.35
2018-06-25T03:25:47.896Z,99393.16
2018-06-25T03:28:17.804Z,99394.03
2018-06-25T03:30:47.448Z,99394.80
2018-06-25T03:33:16.776Z,99404.28
2018-06-25T03:35:46.150Z,99399.07
2018-06-25T03:38:15.509Z,99397.75
2018-06-25T03:40:44.914Z,99404.72
2018-06-25T03:43:14.935Z,99404.48
2018-06-25T03:45:44.503Z,99409.77
2018-06-25T03:48:13.890Z,99405.29
2018-06-25T03:50:43.552Z,99414.36
2018-06-25T03:53:12.955Z,99419.81
2018-06-25T03:55:42.499Z,99418.55
2018-06-25T03:58:12.212Z,99418.86
2018-06-25T04:00:41.568Z,99422.45
2018-06-25T04:03:11.161Z,99418.39
2018-06-25T04:05:40.540Z,99414.42
2018-06-25T04:08:09.891Z,99360.31
2018-06-25T04:10:39.243Z,99417.92
2018-06-25T04:13:08.831Z,99426.93
2018-06-25T04:15:38.927Z,99424.53
2018-06-25T04:18:08.391Z,99431.00
2018-06-25T04:20:37.789Z,99425.48
2018-06-25T04:23:07.565Z,99426.11
2018-06-25T04:25:36.893Z,99432.16
2018-06-25T04:28:06.280Z,99421.59
2018-06-25T04:30:35.636Z,99434.35
2018-06-25T04:33:05.074Z,99432.38
2018-06-25T04:35:34.420Z,99441.48
2018-06-25T04:38:04.137Z,99447.60
2018-06-25T04:40:33.519Z,99455.70
2018-06-25T04:43:02.861Z,99452.19
2018-06-25T04:45:32.495Z,99452.61
2018-06-25T04:48:01.865Z,99453.83
2018-06-25T04:50:31.631Z,99461.23
2018-06-25T04:53:01.159Z,99464.88
2018-06-25T04:55:30.496Z,99467.59
2018-06-25T04:57:59.873Z,99472.57
2018-06-25T05:00:29.215Z,99476.61
2018-06-25T05:02:59.792Z,99480.50
2018-06-25T05:05:29.167Z,99482.37
2018-06-25T05:07:58.576Z,99478.41
2018-06-25T05:10:27.944Z,99486.41
2018-06-25T05:12:57.415Z,99491.52
2018-06-25T05:15:26.748Z,99485.33
2018-06-25T05:17:56.125Z,99486.55
2018-06-25T05:20:25.468Z,99500.63
2018-06-25T05:22:54.874Z,99494.97
2018-06-25T05:25:24.786Z,99505.78
2018-06-25T05:27:54.125Z,99489.92
2018-06-25T05:30:23.498Z,99494.66
2018-06-25T05:32:52.912Z,99495.03
2018-06-25T05:35:22.260Z,99496.91
2018-06-25T05:37:51.600Z,99495.03
2018-06-25T05:40:21.024Z,99501.05
2018-06-25T05:42:50.401Z,99504.22
2018-06-25T05:45:20.144Z,99509.68
2018-06-25T05:47:49.514Z,99513.64
2018-06-25T05:50:18.861Z,99518.52
2018-06-25T05:52:48.214Z,99506.62
2018-06-25T05:55:17.597Z,99506.41
2018-06-25T05:57:46.978Z,99503.83
2018-06-25T06:00:16.333Z,99506.55
2018-06-25T06:02:45.772Z,99424.79
2018-06-25T06:05:15.158Z,99523.52
2018-06-25T06:07:44.560Z,99514.72
2018-06-25T06:10:15.000Z,99520.94
2018-06-25T06:12:44.441Z,99517.59
2018-06-25T06:15:13.825Z,99515.12
2018-06-25T06:17:43.844Z,99519.99
2018-06-25T06:20:13.219Z,99526.40
2018-06-25T06:22:42.573Z,99525.53
2018-06-25T06:25:11.973Z,99530.89
2018-06-25T06:27:41.545Z,99527.71
2018-06-25T06:30:10.964Z,99533.61
2018-06-25T06:33:43.588Z,99539.76
2018-06-25T06:36:12.939Z,99536.42
2018-06-25T06:38:42.332Z,99535.95
2018-06-25T06:41:12.451Z,99539.05
2018-06-25T06:43:41.876Z,99443.25
2018-06-25T06:46:11.280Z,99544.58
2018-06-25T06:48:40.612Z,99539.83
2018-06-25T06:51:09.985Z,99539.43
2018-06-25T06:53:40.224Z,99542.86
2018-06-25T06:56:09.619Z,99540.77
2018-06-25T06:58:38.968Z,99544.97
2018-06-25T07:01:08.617Z,99553.97
2018-06-25T07:03:37.977Z,99549.51
2018-06-25T07:06:07.369Z,99555.91
2018-06-25T07:08:36.783Z,99541.33
2018-06-25T07:11:06.411Z,99543.31
2018-06-25T07:13:35.807Z,99544.95
2018-06-25T07:16:05.556Z,99540.00
2018-06-25T07:18:34.979Z,99544.23
2018-06-25T07:21:04.383Z,99540.59
2018-06-25T07:23:33.754Z,99547.20
2018-06-25T07:26:03.545Z,99552.27
2018-06-25T07:28:32.921Z,99544.16
2018-06-25T07:31:02.252Z,99540.19
2018-06-25T07:33:31.607Z,99544.46
2018-06-25T07:36:01.044Z,99551.59
2018-06-25T07:38:30.441Z,99546.03
2018-06-25T07:40:59.822Z,99553.07
2018-06-25T07:43:29.171Z,99551.45
2018-06-25T07:45:58.594Z,99545.54
2018-06-25T07:48:27.979Z,99553.63
2018-06-25T07:50:57.983Z,99556.44
2018-06-25T07:53:27.392Z,99558.81
2018-06-25T07:55:56.987Z,99553.83
2018-06-25T07:58:26.388Z,99556.58
2018-06-25T08:00:55.780Z,99553.48
2018-06-25T08:03:25.196Z,99552.55
2018-06-25T08:05:54.599Z,99535.38
2018-06-25T08:08:23.992Z,99536.69
2018-06-25T08:10:53.752Z,99542.58
2018-06-25T08:13:23.196Z,99538.66
2018-06-25T08:15:52.594Z,99538.14
2018-06-25T08:18:21.960Z,99535.24
2018-06-25T08:20:51.387Z,99532.30
2018-06-25T08:23:20.778Z,99531.11
2018-06-25T08:25:50.124Z,99526.00
2018-06-25T08:28:19.492Z,99527.23
2018-06-25T08:30:48.849Z,99527.83
2018-06-25T08:33:18.558Z,99535.56
2018-06-25T08:35:48.035Z,99529.73
2018-06-25T08:38:17.404Z,99540.42
2018-06-25T08:40:46.810Z,99539.80
2018-06-25T08:43:16.170Z,99541.13
2018-06-25T08:45:45.608Z,99548.63
2018-06-25T08:48:15.176Z,99544.76
2018-06-25T08:50:44.683Z,99544.11
2018-06-25T08:53:14.501Z,99552.23
2018-06-25T08:55:43.892Z,99555.88
2018-06-25T08:58:13.275Z,99550.41
2018-06-25T09:00:43.399Z,99553.55
2018-06-25T09:03:13.002Z,99554.66
2018-06-25T09:05:42.452Z,99560.65
2018-06-25T09:08:11.810Z,99560.56
2018-06-25T09:10:41.406Z,99559.60
2018-06-25T09:13:10.795Z,99565.11
2018-06-25T09:15:40.183Z,99569.19
2018-06-25T09:18:09.604Z,99563.57
2018-06-25T09:20:38.991Z,99573.17
2018-06-25T09:23:08.737Z,99566.03
2018-06-25T09:25:38.101Z,99562.77
2018-06-25T09:28:07.448Z,99565.59
2018-06-25T09:30:36.835Z,99564.64
2018-06-25T09:33:06.337Z,99562.69
2018-06-25T09:35:35.687Z,99564.82
2018-06-25T09:38:05.162Z,99565.84
2018-06-25T09:40:34.531Z,99573.73
2018-06-25T09:43:03.945Z,99572.67
2018-06-25T09:45:33.357Z,99573.73
2018-06-25T09:48:02.956Z,99578.52
2018-06-25T09:50:32.320Z,99576.70
2018-06-25T09:53:01.716Z,99567.73
2018-06-25T09:55:31.191Z,99570.80
2018-06-25T09:58:00.545Z,99570.89
2018-06-25T10:00:35.173Z,99569.46
2018-06-25T10:03:04.599Z,99564.79
2018-06-25T10:05:34.004Z,99570.62
2018-06-25T10:08:03.357Z,99569.09
2018-06-25T10:10:32.807Z,99567.86
2018-06-25T10:13:02.340Z,99569.56
2018-06-25T10:15:31.761Z,99572.95
2018-06-25T10:18:01.188Z,99571.29
2018-06-25T10:20:30.858Z,99578.08
2018-06-25T10:23:00.198Z,99582.14
2018-06-25T10:25:29.580Z,99586.35
2018-06-25T10:27:58.947Z,99584.25
2018-06-25T10:30:28.293Z,99585.03
2018-06-25T10:32:57.648Z,99583.91
2018-06-25T10:35:27.021Z,99586.18
2018-06-25T10:37:56.436Z,99591.84
2018-06-25T10:40:25.820Z,99593.57
2018-06-25T10:42:55.192Z,99584.81
2018-06-25T10:45:24.572Z,99587.64
2018-06-25T10:47:54.017Z,99584.94
2018-06-25T10:50:23.382Z,99582.88
2018-06-25T10:52:53.543Z,99584.89
2018-06-25T10:55:22.926Z,99583.88
2018-06-25T10:57:52.276Z,99572.31
2018-06-25T11:00:22.164Z,99581.30
2018-06-25T11:02:51.572Z,99572.08
2018-06-25T11:05:20.965Z,99576.77
2018-06-25T11:07:50.461Z,99573.77
2018-06-25T11:10:19.912Z,99577.95
2018-06-25T11:12:49.348Z,99579.38
2018-06-25T11:15:49.261Z,99565.84
2018-06-25T11:18:18.608Z,99567.42
2018-06-25T11:20:48.032Z,99573.02
2018-06-25T11:23:17.424Z,99575.63
2018-06-25T11:25:46.840Z,99582.55
2018-06-25T11:28:16.197Z,99575.61
2018-06-25T11:30:45.678Z,99578.64
2018-06-25T11:33:15.033Z,99573.08
2018-06-25T11:35:44.382Z,99576.27
2018-06-25T11:38:14.689Z,99574.01
2018-06-25T11:40:44.272Z,99571.99
2018-06-25T11:43:14.326Z,99569.88
2018-06-25T11:45:43.739Z,99571.77
2018-06-25T11:48:13.168Z,99574.42
2018-06-25T11:50:42.551Z,99570.62
2018-06-25T11:53:11.923Z,99568.69
2018-06-25T11:55:41.412Z,99106.78
2018-06-25T11:58:11.179Z,99559.63
2018-06-25T12:00:40.523Z,99567.61
2018-06-25T12:03:09.957Z,99562.73
2018-06-25T12:05:39.469Z,99561.73
2018-06-25T12:08:08.840Z,99560.69
2018-06-25T12:10:38.229Z,99558.47
2018-06-25T12:13:07.803Z,99560.27
2018-06-25T12:15:37.212Z,99556.22
2018-06-25T12:18:06.652Z,99553.86
2018-06-25T12:20:35.995Z,99549.23
2018-06-25T12:23:05.572Z,99555.64
2018-06-25T12:25:35.135Z,99558.77
2018-06-25T12:28:04.608Z,99559.44
2018-06-25T12:30:33.968Z,99557.55
2018-06-25T12:33:03.356Z,99554.02
2018-06-25T12:35:32.745Z,99551.52
2018-06-25T12:38:02.215Z,99552.56
2018-06-25T12:40:31.736Z,99551.83
2018-06-25T12:43:01.195Z,99556.06
2018-06-25T12:45:30.680Z,99556.81
2018-06-25T12:48:00.229Z,99551.37
2018-06-25T12:50:29.569Z,99553.75
2018-06-25T12:52:58.912Z,99561.86
2018-06-25T12:55:28.287Z,99562.11
2018-06-25T12:57:57.688Z,99551.68
2018-06-25T13:00:27.095Z,99555.44
2018-06-25T13:02:56.434Z,99552.19
2018-06-25T13:05:25.817Z,99558.95
2018-06-25T13:07:55.204Z,99554.24
2018-06-25T13:10:24.636Z,99556.08
2018-06-25T13:12:54.107Z,99547.37
2018-06-25T13:15:23.720Z,99546.81
2018-06-25T13:17:53.093Z,99557.69
2018-06-25T13:20:22.450Z,99555.89
2018-06-25T13:22:51.816Z,99553.17
2018-06-25T13:25:21.438Z,99561.94
2018-06-25T13:27:50.782Z,99563.06
2018-06-25T13:30:24.637Z,99561.61
2018-06-25T13:32:54.001Z,99558.25
2018-06-25T13:35:23.361Z,99557.33
2018-06-25T13:37:52.717Z,99560.66
2018-06-25T13:40:22.075Z,99557.21
2018-06-25T13:42:51.468Z,99559.02
2018-06-25T13:45:20.845Z,99558.87
2018-06-25T13:47:50.191Z,99556.23
2018-06-25T13:50:19.529Z,99553.00
2018-06-25T13:52:48.991Z,99554.41
2018-06-25T13:55:18.339Z,99560.08
2018-06-25T13:57:48.631Z,99556.72
2018-06-25T14:00:17.988Z,99556.61
2018-06-25T14:02:47.439Z,99555.06
2018-06-25T14:05:16.804Z,99549.14
2018-06-25T14:07:46.193Z,99547.62
2018-06-25T14:10:15.588Z,99557.45
2018-06-25T14:12:45.333Z,99545.20
2018-06-25T14:15:14.693Z,99546.55
2018-06-25T14:17:44.072Z,99544.73
2018-06-25T14:20:13.686Z,99557.63
2018-06-25T14:22:43.160Z,99538.63
2018-06-25T14:25:12.690Z,99546.75
2018-06-25T14:27:47.588Z,99545.97
2018-06-25T14:30:22.183Z,99550.33
2018-06-25T14:32:55.713Z,99545.61
2018-06-25T14:35:25.091Z,99532.80
2018-06-25T14:37:54.483Z,99534.19
2018-06-25T14:40:24.295Z,99529.75
2018-06-25T14:42:54.004Z,99534.39
2018-06-25T14:45:23.353Z,99532.23
2018-06-25T14:47:52.833Z,99533.02
2018-06-25T14:50:22.186Z,99535.84
2018-06-25T14:52:52.163Z,99527.23
2018-06-25T14:55:22.095Z,99526.65
2018-06-25T14:57:52.281Z,99534.28
2018-06-25T15:00:22.192Z,99531.15
2018-06-25T15:02:52.199Z,99527.01
2018-06-25T15:05:21.905Z,99527.63
2018-06-25T15:07:51.474Z,99531.13
2018-06-25T15:10:20.837Z,99530.87
2018-06-25T15:12:50.198Z,99525.62
2018-06-25T15:15:19.547Z,99531.57
2018-06-25T15:17:49.672Z,99531.94
2018-06-25T15:20:19.092Z,99528.23
2018-06-25T15:22:48.504Z,99532.96
2018-06-25T15:25:17.930Z,99535.16
2018-06-25T15:27:47.273Z,99533.02
2018-06-25T15:30:16.782Z,99524.92
2018-06-25T15:32:46.148Z,99533.46
2018-06-25T15:35:15.480Z,99528.70
2018-06-25T15:37:44.866Z,99524.06
2018-06-25T15:40:14.288Z,99519.23
2018-06-25T15:42:43.713Z,99513.88
2018-06-25T15:45:13.401Z,99515.20
2018-06-25T15:47:42.788Z,99511.93
2018-06-25T15:50:12.171Z,99503.77
2018-06-25T15:52:41.716Z,99513.98
2018-06-25T15:55:11.753Z,99505.24
2018-06-25T15:57:41.114Z,99506.58
2018-06-25T16:00:10.564Z,99505.48
2018-06-25T16:02:40.165Z,99505.13
2018-06-25T16:05:09.568Z,99505.98
2018-06-25T16:07:38.985Z,99497.20
2018-06-25T16:10:08.340Z,99502.19
2018-06-25T16:12:37.723Z,99502.44
2018-06-25T16:15:07.132Z,99495.20
2018-06-25T16:17:37.032Z,99500.41
2018-06-25T16:20:07.101Z,99503.94
2018-06-25T16:22:37.492Z,99501.99
2018-06-25T16:25:07.820Z,99333.91
2018-06-25T16:27:37.693Z,99504.52
2018-06-25T16:30:07.366Z,99323.53
2018-06-25T16:32:37.052Z,99498.92
2018-06-25T16:35:06.780Z,99386.92
2018-06-25T16:37:37.123Z,99500.11
2018-06-25T16:40:06.696Z,99359.06
2018-06-25T16:42:36.085Z,99512.73
2018-06-25T16:45:06.188Z,99506.80
2018-06-25T16:47:35.683Z,99512.75
2018-06-25T16:50:06.041Z,99513.95
2018-06-25T16:52:35.468Z,99508.86
2018-06-25T16:55:05.240Z,99514.38
2018-06-25T16:57:34.597Z,99514.73
2018-06-25T17:00:04.384Z,99524.17
2018-06-25T17:02:33.738Z,99522.69
2018-06-25T17:05:03.309Z,99519.84
2018-06-25T17:07:32.775Z,99511.22
2018-06-25T17:10:02.228Z,99518.86
2018-06-25T17:12:31.407Z,99507.27
2018-06-25T17:15:00.792Z,99511.38
2018-06-25T17:17:30.119Z,99517.20
2018-06-25T17:19:59.500Z,99515.09
2018-06-25T17:22:28.900Z,99517.39
2018-06-25T17:24:58.287Z,99516.62
2018-06-25T17:27:27.704Z,99519.19
2018-06-25T17:29:57.240Z,99515.80
2018-06-25T17:32:26.695Z,99514.99
2018-06-25T17:34:56.057Z,99522.48
2018-06-25T17:37:26.114Z,99473.23
2018-06-25T17:39:55.515Z,99527.41
2018-06-25T17:42:24.931Z,99528.99
2018-06-25T17:44:54.636Z,99532.48
2018-06-25T17:47:23.984Z,99538.41
2018-06-25T17:49:53.356Z,99535.75
2018-06-25T17:52:22.735Z,99539.96
2018-06-25T17:54:52.083Z,99534.67
2018-06-25T17:57:21.449Z,99539.86
2018-06-25T17:59:50.799Z,99543.14
2018-06-25T18:02:20.239Z,99542.20
2018-06-25T18:04:49.596Z,99538.75
2018-06-25T18:07:18.980Z,99538.89
2018-06-25T18:09:48.383Z,99540.27
2018-06-25T18:12:18.008Z,99541.14
2018-06-25T18:14:47.820Z,99534.47
2018-06-25T18:17:17.164Z,99537.22
2018-06-25T18:19:46.577Z,99528.25
2018-06-25T18:22:16.078Z,99528.11
2018-06-25T18:24:45.440Z,99528.52
2018-06-25T18:27:14.787Z,99529.14
2018-06-25T18:29:44.193Z,99532.11
2018-06-25T18:32:13.582Z,99537.42
2018-06-25T18:34:43.001Z,99535.36
2018-06-25T18:37:12.381Z,99538.42
2018-06-25T18:39:41.955Z,99530.93
2018-06-25T18:42:11.292Z,99530.50
2018-06-25T18:44:40.766Z,99537.87
2018-06-25T18:47:10.317Z,99530.70
2018-06-25T18:49:39.780Z,99541.00
2018-06-25T18:52:09.124Z,99534.57
2018-06-25T18:54:38.543Z,99541.80
2018-06-25T18:57:08.015Z,99541.60
2018-06-25T18:59:37.544Z,99548.96
2018-06-25T19:02:07.813Z,99548.46
2018-06-25T19:04:37.185Z,99551.09
2018-06-25T19:07:06.667Z,99554.83
2018-06-25T19:09:36.369Z,99552.16
2018-06-25T19:12:05.805Z,99557.19
2018-06-25T19:14:35.323Z,99385.56
2018-06-25T19:17:04.812Z,99571.08
2018-06-25T19:19:34.336Z,99568.41
2018-06-25T19:22:03.717Z,99576.13
2018-06-25T19:24:33.308Z,99577.20
2018-06-25T19:27:02.740Z,99581.79
2018-06-25T19:29:32.100Z,99580.78
2018-06-25T19:32:01.529Z,99585.61
2018-06-25T19:34:30.871Z,99594.57
2018-06-25T19:37:00.614Z,99587.27
2018-06-25T19:39:30.533Z,99591.63
2018-06-25T19:41:59.943Z,99591.73
2018-06-25T19:44:29.857Z,99586.50
2018-06-25T19:46:59.237Z,99592.42
2018-06-25T19:49:28.653Z,99590.90
2018-06-25T19:51:58.624Z,99593.85
2018-06-25T19:54:28.007Z,99584.53
2018-06-25T19:56:59.044Z,99589.22
2018-06-25T19:59:28.382Z,99593.21
2018-06-25T20:01:57.760Z,99593.31
2018-06-25T20:04:27.849Z,99600.56
2018-06-25T20:06:57.884Z,99601.89
2018-06-25T20:09:27.288Z,99596.98
2018-06-25T20:11:56.646Z,99601.27
2018-06-25T20:14:26.359Z,99603.47
2018-06-25T20:16:56.091Z,99611.18
2018-06-25T20:19:25.508Z,99604.52
2018-06-25T20:21:55.037Z,99603.70
2018-06-25T20:24:24.423Z,99605.72
2018-06-25T20:26:53.904Z,99616.19
2018-06-25T20:29:24.261Z,99621.23
2018-06-25T20:31:53.644Z,99614.39
2018-06-25T20:34:23.439Z,99613.94
2018-06-25T20:36:52.982Z,99616.97
2018-06-25T20:39:22.535Z,99608.06
2018-06-25T20:41:51.888Z,99620.81
2018-06-25T20:44:21.263Z,99611.13
2018-06-25T20:46:50.671Z,99610.54
2018-06-25T20:49:34.927Z,99610.94
2018-06-25T20:52:04.319Z,99607.63
2018-06-25T20:54:33.670Z,99611.13
2018-06-25T20:57:03.161Z,99614.01
2018-06-25T20:59:32.940Z,99629.60
2018-06-25T21:02:03.330Z,99617.81
2018-06-25T21:04:32.919Z,99614.88
2018-06-25T21:07:03.418Z,99617.31
2018-06-25T21:09:32.798Z,99615.15
2018-06-25T21:12:02.162Z,99618.21
2018-06-25T21:14:31.576Z,99624.17
2018-06-25T21:17:00.948Z,99623.80
2018-06-25T21:19:30.907Z,99623.12
2018-06-25T21:22:00.626Z,99625.13
2018-06-25T21:24:29.959Z,99629.52
2018-06-25T21:26:59.354Z,99628.00
2018-06-25T21:29:28.726Z,99627.25
2018-06-25T21:31:58.112Z,99626.87
2018-06-25T21:34:27.510Z,99630.70
2018-06-25T21:36:57.119Z,99628.32
2018-06-25T21:39:26.492Z,99634.84
2018-06-25T21:41:55.846Z,99633.64
2018-06-25T21:44:25.263Z,99622.90
2018-06-25T21:46:54.640Z,99635.23
2018-06-25T21:49:24.830Z,99625.19
2018-06-25T21:51:54.236Z,99627.84
2018-06-25T21:54:23.599Z,99626.97
2018-06-25T21:56:52.996Z,99621.88
2018-06-25T21:59:22.415Z,99622.24
2018-06-25T22:01:54.676Z,99620.54
2018-06-25T22:04:24.397Z,99619.59
2018-06-25T22:06:53.801Z,99628.70
2018-06-25T22:09:23.161Z,99625.58
2018-06-25T22:11:52.547Z,99631.17
2018-06-25T22:14:21.913Z,99631.55
2018-06-25T22:16:51.340Z,99629.72
2018-06-25T22:19:20.967Z,99640.92
2018-06-25T22:21:50.730Z,99646.45
2018-06-25T22:24:20.107Z,99652.43
2018-06-25T22:26:49.486Z,99655.46
2018-06-25T22:29:18.843Z,99649.58
2018-06-25T22:31:48.602Z,99670.45
2018-06-25T22:34:18.588Z,99368.58
2018-06-25T22:36:48.308Z,99666.02
2018-06-25T22:39:17.679Z,99661.45
2018-06-25T22:41:47.027Z,99665.90
2018-06-25T22:44:16.360Z,99662.12
2018-06-25T22:46:45.711Z,99664.69
2018-06-25T22:49:15.079Z,99664.19
2018-06-25T22:51:44.415Z,99650.81
2018-06-25T22:54:14.057Z,99649.78
2018-06-25T22:56:43.415Z,99652.44
2018-06-25T22:59:12.985Z,99649.20
2018-06-25T23:01:42.307Z,99640.64
2018-06-25T23:04:11.661Z,99634.87
2018-06-25T23:06:41.753Z,99636.86
2018-06-25T23:09:12.174Z,99620.23
2018-06-25T23:11:41.661Z,99620.80
2018-06-25T23:14:10.991Z,99625.75
2018-06-25T23:16:40.538Z,99620.44
2018-06-25T23:19:09.895Z,99625.09
2018-06-25T23:21:39.315Z,99621.49
2018-06-25T23:24:08.695Z,99619.38
2018-06-25T23:26:38.042Z,99621.58
2018-06-25T23:29:07.386Z,99615.70
2018-06-25T23:31:36.733Z,99609.64
2018-06-25T23:34:06.108Z,99617.67
2018-06-25T23:36:35.531Z,99611.41
2018-06-25T23:39:07.959Z,99608.95
2018-06-25T23:41:37.960Z,99604.95
2018-06-25T23:44:07.706Z,99608.35
2018-06-25T23:46:37.101Z,99599.05
2018-06-25T23:49:06.815Z,99607.03
2018-06-25T23:51:36.483Z,99607.57
2018-06-25T23:54:06.550Z,99614.80
2018-06-25T23:56:36.787Z,99607.00
2018-06-25T23:59:06.117Z,99605.30
